Coober Pedy, South Australia

3:35 PM ACST on April 26, 2015 (GMT +0930)
Coober Pedy | | Change Station
CLOSE
Current Station
Personal Weather Station
Location: Coober Pedy, SOUTH AUSTRALIA
Elevation: 663 ft
Nearby Weather Stations

Elev 663 ft 29.00 °S, 134.76 °E | Updated 8 seconds ago

Mostly Cloudy
Mostly Cloudy
69.4 °F
Feels Like 69.4 °F
N
4.3
Wind Variable Wind from SSE
Gusts 4.9 mph

Today
High -- | Low -- °F
--% Chance of Precip.
Yesterday
High -- | Low -- °F
Precip. -- in
6:55 AM 6:02 PM
First Quarter, 52% visible
Pressure 30.24 in
Visibility -9999.0 miles
Clouds Mostly Cloudy 5700 ft
Dew Point 41 °F
Humidity 36%
Rainfall 0.00 in
Snow Depth Not available.
UV 2.0 out of 12
Pollen Not available.
Air Quality Not available.
Flu Activity Not available.
METAR YCBP 260600Z AUTO 21010KT //// // BKN057 19/04 Q1024

More Conditions Fewer Conditions

Pressure 30.24 in
Visibility -9999.0 miles
Clouds Mostly Cloudy 5700 ft
Dew Point 41 °F
Humidity 36%
Rainfall 0.00 in
Snow Depth Not available.
UV 2.0 out of 12
Pollen Not available.
Air Quality Not available.
Flu Activity Not available.
METAR YCBP 260600Z AUTO 21010KT //// // BKN057 19/04 Q1024

More Conditions Fewer Conditions

10-Day Weather Forecast

Almanac

Astronomy

Apr. 26, 2015 Rise Set
Actual Time
Civil Twilight
Nautical Twilight
Astronomical Twilight
Moon
Length of Visible Light
Length of Day
Tomorrow will be .
, % of the Moon is Illuminated

Today's Extremes

Country Highs Country Lows

Community

WunderPhotos

Upload Photos

1,816,947 photos uploaded!

WunderBlogs® & News

Nearby

Air Quality

  Air Quality AQ Index Pollutant
Not available.

Snow Depth

Station Depth Elevation

Earthquake Activity

City Distance Mag. Time & Date
Minimum magnitude displayed is 2.5.

Coastal Water Temperatures

Place Temperature

Stations

Nearby Weather Stations

Station Location Temp. Windchill Dew Point Humidity Wind Precip. Elev Updated Type